createdAt,value
2023-04-01T00:02:40.145Z,16.70
2023-04-01T00:05:43.548Z,19.40
2023-04-01T00:08:47.648Z,31.10
2023-04-01T00:11:50.632Z,26.00
2023-04-01T00:14:53.367Z,28.40
2023-04-01T00:17:56.209Z,24.40
2023-04-01T00:20:59.042Z,22.10
2023-04-01T00:24:01.822Z,30.50
2023-04-01T00:27:04.781Z,24.00
2023-04-01T00:30:08.624Z,22.30
2023-04-01T00:33:12.116Z,29.10
2023-04-01T00:36:17.913Z,26.10
2023-04-01T00:39:22.333Z,28.60
2023-04-01T00:42:25.121Z,24.30
2023-04-01T00:45:38.606Z,23.60
2023-04-01T00:49:03.618Z,26.40
2023-04-01T00:52:09.195Z,32.10
2023-04-01T00:55:16.076Z,21.10
2023-04-01T00:58:23.449Z,21.00
2023-04-01T01:01:27.029Z,18.30
2023-04-01T01:04:33.167Z,19.80
2023-04-01T01:08:05.377Z,17.40
2023-04-01T01:11:12.723Z,26.60
2023-04-01T01:14:22.758Z,24.90
2023-04-01T01:17:49.028Z,20.40
2023-04-01T01:21:11.655Z,20.40
2023-04-01T01:24:23.447Z,35.50
2023-04-01T01:27:27.480Z,20.70
2023-04-01T01:30:59.680Z,20.00
2023-04-01T01:34:32.587Z,20.30
2023-04-01T01:37:36.584Z,22.80
2023-04-01T01:40:42.246Z,44.30
2023-04-01T01:43:48.754Z,19.70
2023-04-01T01:46:52.724Z,30.10
2023-04-01T01:49:56.849Z,30.10
2023-04-01T01:53:08.358Z,59.80
2023-04-01T01:56:16.715Z,30.60
2023-04-01T01:59:23.642Z,27.10
2023-04-01T02:02:27.995Z,31.60
2023-04-01T02:05:32.231Z,25.70
2023-04-01T02:09:04.028Z,18.50
2023-04-01T02:12:11.490Z,37.80
2023-04-01T02:15:18.970Z,23.80
2023-04-01T02:18:22.251Z,26.90
2023-04-01T02:21:30.643Z,18.20
2023-04-01T02:24:38.212Z,30.50
2023-04-01T02:27:44.620Z,23.20
2023-04-01T02:30:49.583Z,25.10
2023-04-01T02:33:53.598Z,29.50
2023-04-01T02:36:58.308Z,24.30
2023-04-01T02:40:03.358Z,30.50
2023-04-01T02:43:06.082Z,30.90
2023-04-01T02:46:09.108Z,26.30
2023-04-01T02:49:12.430Z,21.30
2023-04-01T02:52:16.010Z,25.50
2023-04-01T02:55:18.882Z,30.40
2023-04-01T02:58:21.873Z,36.90
2023-04-01T03:01:24.872Z,27.00
2023-04-01T03:04:27.761Z,25.20
2023-04-01T03:07:30.735Z,28.10
2023-04-01T03:10:33.561Z,26.40
2023-04-01T03:13:37.489Z,32.90
2023-04-01T03:16:40.525Z,27.10
2023-04-01T03:19:43.410Z,31.50
2023-04-01T03:22:46.933Z,37.50
2023-04-01T03:25:49.638Z,34.40
2023-04-01T03:28:52.462Z,32.10
2023-04-01T03:31:55.463Z,34.20
2023-04-01T03:34:58.570Z,25.10
2023-04-01T03:38:01.615Z,27.90
2023-04-01T03:41:04.893Z,32.70
2023-04-01T03:44:08.073Z,41.40
2023-04-01T03:47:11.101Z,33.40
2023-04-01T03:50:13.880Z,32.10
2023-04-01T03:53:16.772Z,28.60
2023-04-01T03:56:20.431Z,25.30
2023-04-01T03:59:23.273Z,25.40
2023-04-01T04:02:26.725Z,30.70
2023-04-01T04:05:29.985Z,23.90
2023-04-01T04:08:32.775Z,21.70
2023-04-01T04:11:36.439Z,24.90
2023-04-01T04:14:39.185Z,29.90
2023-04-01T04:17:42.540Z,29.70
2023-04-01T04:20:51.961Z,33.30
2023-04-01T04:23:55.711Z,26.70
2023-04-01T04:26:58.483Z,25.60
2023-04-01T04:30:01.268Z,31.10
2023-04-01T04:33:04.235Z,27.90
2023-04-01T04:36:08.180Z,23.40
2023-04-01T04:39:11.106Z,23.40
2023-04-01T04:42:16.854Z,24.30
2023-04-01T04:45:20.563Z,30.00
2023-04-01T04:48:29.711Z,24.90
2023-04-01T04:51:34.972Z,22.40
2023-04-01T04:54:38.036Z,27.70
2023-04-01T04:57:42.367Z,21.40
2023-04-01T05:00:46.266Z,26.20
2023-04-01T05:03:56.665Z,31.40
2023-04-01T05:06:59.381Z,35.30
2023-04-01T05:10:02.389Z,20.50
2023-04-01T05:13:05.225Z,19.50
2023-04-01T05:16:16.798Z,21.90
2023-04-01T05:19:19.788Z,20.30
2023-04-01T05:22:22.592Z,23.80
2023-04-01T05:25:25.944Z,16.50
2023-04-01T05:28:28.850Z,18.50
2023-04-01T05:31:31.714Z,16.00
2023-04-01T05:34:34.915Z,102.60
2023-04-01T05:37:38.871Z,301.90
2023-04-01T05:40:41.607Z,166.20
2023-04-01T05:43:44.906Z,65.30
2023-04-01T05:47:19.695Z,60.30
2023-04-01T05:54:12.962Z,59.30
2023-04-01T05:57:16.289Z,37.40
2023-04-01T06:00:21.061Z,45.30
2023-04-01T06:03:24.492Z,21.40
2023-04-01T06:06:30.013Z,33.30
2023-04-01T06:09:37.425Z,36.60
2023-04-01T06:12:43.806Z,23.20
2023-04-01T06:16:01.668Z,37.30
2023-04-01T06:19:08.913Z,28.10
2023-04-01T06:22:37.720Z,30.70
2023-04-01T06:25:55.042Z,34.00
2023-04-01T06:29:22.778Z,38.00
2023-04-01T06:35:39.503Z,22.50
2023-04-01T06:38:48.458Z,26.90
2023-04-01T06:42:18.452Z,27.40
2023-04-01T06:45:55.253Z,33.60
2023-04-01T06:49:22.943Z,26.50
2023-04-01T06:53:13.893Z,22.30
2023-04-01T06:56:34.013Z,30.30
2023-04-01T06:59:50.017Z,31.70
2023-04-01T07:03:36.489Z,27.30
2023-04-01T07:06:49.951Z,23.80
2023-04-01T07:10:00.260Z,23.20
2023-04-01T07:13:13.841Z,30.40
2023-04-01T07:16:33.335Z,28.10
2023-04-01T07:19:53.011Z,19.90
2023-04-01T07:23:00.544Z,23.50
2023-04-01T07:26:19.927Z,283.40
2023-04-01T07:29:49.070Z,143.10
2023-04-01T07:33:55.511Z,83.80
2023-04-01T07:37:06.483Z,90.90
2023-04-01T07:40:42.411Z,64.30
2023-04-01T07:43:54.462Z,42.20
2023-04-01T07:47:26.778Z,33.80
2023-04-01T07:50:35.772Z,17.20
2023-04-01T07:53:49.893Z,14.10
2023-04-01T07:57:04.291Z,23.60
2023-04-01T08:00:43.820Z,17.40
2023-04-01T08:04:07.364Z,34.60
2023-04-01T08:07:13.150Z,16.60
2023-04-01T08:10:34.092Z,17.00
2023-04-01T08:14:25.304Z,22.50
2023-04-01T08:18:27.668Z,20.00
2023-04-01T08:21:43.075Z,13.90
2023-04-01T08:24:48.993Z,16.50
2023-04-01T08:28:25.462Z,15.30
2023-04-01T08:32:11.663Z,12.10
2023-04-01T08:35:49.928Z,15.90
2023-04-01T08:38:56.290Z,12.60
2023-04-01T08:42:16.448Z,24.40
2023-04-01T08:45:25.547Z,16.60
2023-04-01T08:48:47.412Z,11.10
2023-04-01T08:52:33.048Z,12.20
2023-04-01T08:55:36.289Z,9.20
2023-04-01T08:59:15.681Z,9.40
2023-04-01T09:02:57.014Z,12.70
2023-04-01T09:06:13.122Z,9.80
2023-04-01T09:09:48.419Z,149.90
2023-04-01T09:13:29.869Z,10.70
2023-04-01T09:16:55.672Z,10.70
2023-04-01T09:20:31.956Z,10.50
2023-04-01T09:24:15.488Z,8.20
2023-04-01T09:27:35.700Z,8.10
2023-04-01T09:30:57.004Z,10.10
2023-04-01T09:34:22.338Z,11.10
2023-04-01T09:38:01.699Z,9.90
2023-04-01T09:41:24.791Z,13.80
2023-04-01T09:44:42.968Z,8.90
2023-04-01T09:48:00.683Z,7.70
2023-04-01T09:51:31.651Z,6.40
2023-04-01T09:54:50.624Z,5.70
2023-04-01T09:58:02.656Z,4.80
2023-04-01T10:02:18.185Z,4.60
2023-04-01T10:06:00.759Z,4.30
2023-04-01T10:09:32.948Z,4.50
2023-04-01T10:12:54.276Z,5.50
2023-04-01T10:16:25.628Z,4.70
2023-04-01T10:19:50.650Z,6.10
2023-04-01T10:23:13.177Z,10.00
2023-04-01T10:26:53.964Z,11.70
2023-04-01T10:30:28.600Z,9.10
2023-04-01T10:33:58.062Z,9.60
2023-04-01T10:37:27.604Z,12.80
2023-04-01T10:40:48.949Z,12.70
2023-04-01T10:44:23.604Z,9.50
2023-04-01T10:48:03.809Z,8.70
2023-04-01T10:51:22.480Z,8.20
2023-04-01T10:54:47.162Z,10.30
2023-04-01T10:58:28.765Z,9.90
2023-04-01T11:02:25.146Z,10.40
2023-04-01T11:06:17.250Z,13.90
2023-04-01T11:09:39.091Z,7.80
2023-04-01T11:12:45.162Z,8.00
2023-04-01T11:16:20.543Z,10.90
2023-04-01T11:19:23.524Z,9.40
2023-04-01T11:22:56.950Z,9.50
2023-04-01T11:26:07.102Z,9.10
2023-04-01T11:29:34.169Z,10.60
2023-04-01T11:33:04.835Z,10.30
2023-04-01T11:36:17.381Z,8.00
2023-04-01T11:39:32.747Z,6.60
2023-04-01T11:43:32.244Z,8.20
2023-04-01T11:47:19.169Z,7.90
2023-04-01T11:50:41.432Z,9.50
2023-04-01T11:54:02.882Z,15.10
2023-04-01T11:57:13.197Z,11.80
2023-04-01T12:00:26.188Z,11.80
2023-04-01T12:03:37.973Z,7.30
2023-04-01T12:06:55.454Z,7.20
2023-04-01T12:13:28.428Z,7.30
2023-04-01T12:16:40.701Z,4.40
2023-04-01T12:19:53.991Z,3.40
2023-04-01T12:23:09.453Z,11.00
2023-04-01T12:26:19.576Z,4.30
2023-04-01T12:29:25.311Z,4.10
2023-04-01T12:32:49.194Z,3.80
2023-04-01T12:36:16.841Z,2.20
2023-04-01T12:42:43.685Z,4.50
2023-04-01T12:46:06.836Z,2.70
2023-04-01T12:49:25.024Z,5.00
2023-04-01T12:52:51.935Z,7.20
2023-04-01T12:56:04.719Z,3.90
2023-04-01T12:59:42.099Z,3.90
2023-04-01T13:03:06.132Z,4.90
2023-04-01T13:06:38.987Z,4.20
2023-04-01T13:09:52.426Z,7.30
2023-04-01T13:13:12.228Z,9.10
2023-04-01T13:16:42.659Z,5.10
2023-04-01T13:20:02.041Z,5.50
2023-04-01T13:23:10.666Z,4.90
2023-04-01T13:26:29.584Z,4.40
2023-04-01T13:29:40.373Z,7.70
2023-04-01T13:32:55.897Z,9.70
2023-04-01T13:36:29.648Z,9.50
2023-04-01T13:40:01.607Z,6.30
2023-04-01T13:43:24.691Z,6.00
2023-04-01T13:46:36.714Z,7.40
2023-04-01T13:50:06.229Z,9.40
2023-04-01T13:53:36.934Z,8.80
2023-04-01T13:56:59.467Z,8.20
2023-04-01T14:00:32.162Z,10.00
2023-04-01T14:03:44.140Z,8.40
2023-04-01T14:07:22.640Z,10.60
2023-04-01T14:11:10.433Z,8.00
2023-04-01T14:14:18.885Z,6.40
2023-04-01T14:18:02.796Z,11.50
2023-04-01T14:21:14.766Z,4.60
2023-04-01T14:24:42.162Z,5.40
2023-04-01T14:28:23.138Z,4.60
2023-04-01T14:31:31.935Z,5.60
2023-04-01T14:35:11.662Z,5.40
2023-04-01T14:38:26.646Z,20.70
2023-04-01T14:42:15.605Z,5.40
2023-04-01T14:45:41.902Z,3.90
2023-04-01T14:48:57.218Z,23.80
2023-04-01T14:52:18.521Z,3.50
2023-04-01T14:55:39.801Z,5.50
2023-04-01T14:58:51.373Z,5.40
2023-04-01T15:02:15.343Z,4.00
2023-04-01T15:05:37.419Z,23.00
2023-04-01T15:08:51.719Z,5.40
2023-04-01T15:12:14.681Z,5.30
2023-04-01T15:15:37.231Z,4.70
2023-04-01T15:18:49.151Z,3.20
2023-04-01T15:22:07.634Z,8.20
2023-04-01T15:25:29.217Z,4.50
2023-04-01T15:29:02.364Z,4.60
2023-04-01T15:32:21.060Z,5.40
2023-04-01T15:35:30.009Z,6.10
2023-04-01T15:38:49.544Z,5.70
2023-04-01T15:42:31.105Z,4.80
2023-04-01T15:45:39.856Z,7.50
2023-04-01T15:49:04.587Z,12.80
2023-04-01T15:52:55.802Z,21.80
2023-04-01T15:56:42.307Z,15.60
2023-04-01T16:00:09.864Z,24.40
2023-04-01T16:03:50.552Z,25.60
2023-04-01T16:07:25.684Z,21.70
2023-04-01T16:10:50.428Z,22.90
2023-04-01T16:14:24.734Z,27.70
2023-04-01T16:18:05.708Z,34.90
2023-04-01T16:21:23.292Z,20.30
2023-04-01T16:24:37.060Z,18.80
2023-04-01T16:27:42.733Z,29.00
2023-04-01T16:31:14.799Z,25.00
2023-04-01T16:34:26.266Z,20.50
2023-04-01T16:37:46.472Z,21.70
2023-04-01T16:41:23.124Z,30.30
2023-04-01T16:44:28.533Z,24.80
2023-04-01T16:47:39.790Z,23.60
2023-04-01T16:51:11.022Z,22.20
2023-04-01T16:54:19.984Z,23.20
2023-04-01T16:57:31.739Z,22.30
2023-04-01T17:00:40.100Z,27.60
2023-04-01T17:03:46.925Z,28.10
2023-04-01T17:10:48.239Z,27.40
2023-04-01T17:14:02.934Z,33.10
2023-04-01T17:17:31.268Z,26.00
2023-04-01T17:20:39.857Z,32.40
2023-04-01T17:23:55.072Z,38.70
2023-04-01T17:27:38.883Z,33.40
2023-04-01T17:31:08.055Z,35.20
2023-04-01T17:34:36.992Z,30.60
2023-04-01T17:37:51.632Z,37.70
2023-04-01T17:41:25.644Z,34.60
2023-04-01T17:44:28.463Z,41.20
2023-04-01T17:47:51.225Z,38.60
2023-04-01T17:51:18.138Z,41.60
2023-04-01T17:54:32.998Z,40.80
2023-04-01T17:57:56.038Z,42.80
2023-04-01T18:01:23.394Z,44.60
2023-04-01T18:04:32.178Z,48.70
2023-04-01T18:08:01.665Z,51.50
2023-04-01T18:11:45.900Z,48.70
2023-04-01T18:15:22.283Z,46.50
2023-04-01T18:18:48.205Z,51.40
2023-04-01T18:21:56.876Z,50.90
2023-04-01T18:25:13.964Z,53.20
2023-04-01T18:28:32.249Z,57.40
2023-04-01T18:31:43.183Z,51.60
2023-04-01T18:34:55.389Z,42.30
2023-04-01T18:38:03.995Z,48.50
2023-04-01T18:41:28.598Z,52.90
2023-04-01T18:44:43.291Z,55.30
2023-04-01T18:47:57.335Z,47.50
2023-04-01T18:51:11.514Z,53.50
2023-04-01T18:54:46.626Z,43.80
2023-04-01T18:58:13.610Z,44.40
2023-04-01T19:01:35.958Z,46.10
2023-04-01T19:04:50.152Z,42.40
2023-04-01T19:07:55.019Z,48.10
2023-04-01T19:11:40.445Z,40.00
2023-04-01T19:14:58.060Z,39.80
2023-04-01T19:18:15.412Z,43.60
2023-04-01T19:24:53.098Z,43.70
2023-04-01T19:28:22.788Z,59.90
2023-04-01T19:31:25.690Z,49.00
2023-04-01T19:35:04.057Z,54.20
2023-04-01T19:38:22.318Z,53.60
2023-04-01T19:41:53.714Z,45.40
2023-04-01T19:45:09.526Z,45.00
2023-04-01T19:48:39.642Z,40.90
2023-04-01T19:52:15.619Z,65.50
2023-04-01T19:55:27.196Z,40.80
2023-04-01T19:59:21.974Z,40.60
2023-04-01T20:02:40.840Z,47.20
2023-04-01T20:06:08.899Z,52.00
2023-04-01T20:09:41.154Z,45.80
2023-04-01T20:12:46.998Z,50.90
2023-04-01T20:16:02.349Z,51.30
2023-04-01T20:19:05.416Z,63.40
2023-04-01T20:22:26.457Z,58.00
2023-04-01T20:25:44.261Z,62.50
2023-04-01T20:29:22.076Z,53.30
2023-04-01T20:33:02.055Z,60.70
2023-04-01T20:36:26.044Z,54.10
2023-04-01T20:39:31.793Z,61.20
2023-04-01T20:43:02.784Z,55.40
2023-04-01T20:46:31.908Z,48.00
2023-04-01T20:49:40.611Z,49.00
2023-04-01T20:52:55.446Z,45.40
2023-04-01T20:56:17.087Z,46.70
2023-04-01T20:59:35.873Z,44.00
2023-04-01T21:03:09.405Z,52.00
2023-04-01T21:06:14.910Z,49.90
2023-04-01T21:09:31.248Z,47.40
2023-04-01T21:12:46.237Z,49.40
2023-04-01T21:16:26.403Z,50.00
2023-04-01T21:19:50.348Z,56.20
2023-04-01T21:23:43.848Z,47.70
2023-04-01T21:26:52.639Z,42.80
2023-04-01T21:30:17.458Z,44.10
2023-04-01T21:33:42.187Z,66.00
2023-04-01T21:37:06.452Z,85.80
2023-04-01T21:40:27.764Z,77.20
2023-04-01T21:43:55.689Z,75.40
2023-04-01T21:47:03.654Z,54.80
2023-04-01T21:50:44.146Z,97.60
2023-04-01T21:53:59.054Z,45.90
2023-04-01T21:57:08.117Z,61.80
2023-04-01T22:00:17.534Z,69.10
2023-04-01T22:03:32.749Z,65.70
2023-04-01T22:06:42.107Z,71.60
2023-04-01T22:10:10.157Z,47.70
2023-04-01T22:13:21.175Z,53.80
2023-04-01T22:16:33.255Z,41.70
2023-04-01T22:19:36.682Z,45.40
2023-04-01T22:22:52.181Z,45.20
2023-04-01T22:26:10.913Z,42.20
2023-04-01T22:29:16.670Z,49.60
2023-04-01T22:32:28.197Z,37.70
2023-04-01T22:35:31.583Z,39.60
2023-04-01T22:38:59.110Z,35.70
2023-04-01T22:42:21.845Z,45.30
2023-04-01T22:45:34.006Z,22.90
2023-04-01T22:48:48.779Z,33.70
2023-04-01T22:52:04.220Z,23.50
2023-04-01T22:55:21.468Z,22.50
2023-04-01T23:01:41.398Z,30.30
2023-04-01T23:04:52.264Z,23.30
2023-04-01T23:08:39.122Z,18.00
2023-04-01T23:11:58.794Z,18.20
2023-04-01T23:15:03.421Z,14.40
2023-04-01T23:18:35.124Z,13.40
2023-04-01T23:21:50.813Z,14.40
2023-04-01T23:25:08.575Z,17.30
2023-04-01T23:28:17.170Z,27.20
2023-04-01T23:31:32.875Z,15.00
2023-04-01T23:34:36.899Z,10.30
2023-04-01T23:37:39.679Z,16.20
2023-04-01T23:40:43.014Z,11.40
2023-04-01T23:43:50.436Z,11.50
2023-04-01T23:46:54.565Z,11.60
2023-04-01T23:50:19.306Z,136.30
2023-04-01T23:53:26.268Z,10.50
2023-04-01T23:56:49.777Z,13.20
